Time;durP1;ratioP1;P1;durP2;ratioP2;P2;SDS_P1;SDS_P2;PMS_P1;PMS_P2;Temp;Humidity;BMP_temperature;BMP_pressure;BME280_temperature;BME280_humidity;BME280_pressure;Samples;Min_cycle;Max_cycle;Signal;HPM_P1;HPM_P2
2023/08/19 00:01:00;;;;;;;9.50;7.37;;;;;;;;;;4935256;29;20427;-84
2023/08/19 00:03:26;;;;;;;9.07;7.70;;;;;;;;;;4935632;29;20412;-83
2023/08/19 00:05:52;;;;;;;8.83;8.03;;;;;;;;;;4935303;29;20535;-85
2023/08/19 00:08:19;;;;;;;8.73;8.03;;;;;;;;;;4935534;29;20523;-83
2023/08/19 00:10:45;;;;;;;8.57;7.77;;;;;;;;;;4939506;29;20202;-82
2023/08/19 00:13:11;;;;;;;8.93;8.07;;;;;;;;;;4954676;28;20897;-82
2023/08/19 00:15:37;;;;;;;8.87;8.07;;;;;;;;;;4954209;28;20514;-83
2023/08/19 00:18:03;;;;;;;9.27;8.23;;;;;;;;;;4954431;28;20589;-84
2023/08/19 00:20:29;;;;;;;11.60;8.30;;;;;;;;;;4954350;28;20633;-83
2023/08/19 00:22:56;;;;;;;9.57;8.67;;;;;;;;;;4954734;28;20402;-82
2023/08/19 00:25:22;;;;;;;9.13;8.23;;;;;;;;;;4954588;28;20520;-83
2023/08/19 00:27:48;;;;;;;10.57;8.70;;;;;;;;;;4954623;28;20450;-82
2023/08/19 00:30:17;;;;;;;10.50;8.47;;;;;;;;;;4954462;28;20454;-83
2023/08/19 00:32:44;;;;;;;9.57;8.37;;;;;;;;;;4954525;28;20462;-82
2023/08/19 00:35:10;;;;;;;7.53;6.90;;;;;;;;;;4953550;28;20423;-82
2023/08/19 00:37:36;;;;;;;9.73;8.87;;;;;;;;;;4953990;28;20425;-82
2023/08/19 00:40:06;;;;;;;11.07;7.87;;;;;;;;;;4969110;28;20215;-82
2023/08/19 00:42:32;;;;;;;9.63;7.87;;;;;;;;;;4954288;29;20439;-82
2023/08/19 00:45:01;;;;;;;10.10;8.37;;;;;;;;;;4954076;29;20441;-82
2023/08/19 00:47:27;;;;;;;9.43;8.53;;;;;;;;;;4954319;29;20438;-83
2023/08/19 00:49:53;;;;;;;9.90;9.00;;;;;;;;;;4953983;28;20420;-82
2023/08/19 00:52:22;;;;;;;8.23;7.47;;;;;;;;;;4969109;28;20521;-82
2023/08/19 00:54:57;;;;;;;11.47;8.70;;;;;;;;;;4969070;28;20529;-82
2023/08/19 00:57:23;;;;;;;8.47;7.20;;;;;;;;;;4954486;29;20411;-83
2023/08/19 00:59:49;;;;;;;9.17;8.27;;;;;;;;;;4978500;28;20502;-83
2023/08/19 01:02:15;;;;;;;8.30;7.60;;;;;;;;;;4971274;28;20414;-83
2023/08/19 01:04:41;;;;;;;10.23;9.20;;;;;;;;;;4954210;28;20599;-83
2023/08/19 01:07:12;;;;;;;9.27;8.37;;;;;;;;;;4953963;28;20179;-82
2023/08/19 01:09:41;;;;;;;11.13;9.60;;;;;;;;;;4954388;29;20538;-83
2023/08/19 01:12:25;;;;;;;11.77;8.63;;;;;;;;;;4954231;28;20411;-83
2023/08/19 01:15:05;;;;;;;10.20;9.23;;;;;;;;;;4971625;28;20478;-82
2023/08/19 01:17:31;;;;;;;10.30;9.20;;;;;;;;;;4957767;29;20422;-82
2023/08/19 01:19:57;;;;;;;16.60;9.83;;;;;;;;;;4957131;29;20480;-83
2023/08/19 01:22:46;;;;;;;9.20;8.40;;;;;;;;;;4972417;28;20788;-83
2023/08/19 01:25:13;;;;;;;9.80;9.00;;;;;;;;;;4945521;28;20997;-83
2023/08/19 01:27:38;;;;;;;10.50;9.37;;;;;;;;;;4957464;28;20779;-82
2023/08/19 01:30:05;;;;;;;8.57;7.77;;;;;;;;;;4957549;29;20407;-83
2023/08/19 01:32:31;;;;;;;8.87;8.13;;;;;;;;;;4957412;29;20895;-83
2023/08/19 01:35:00;;;;;;;9.03;8.23;;;;;;;;;;4957062;29;20410;-83
2023/08/19 01:37:30;;;;;;;8.90;7.43;;;;;;;;;;4957334;28;20411;-83
2023/08/19 01:39:57;;;;;;;10.47;8.10;;;;;;;;;;4957042;29;20843;-83
2023/08/19 01:42:23;;;;;;;10.63;9.53;;;;;;;;;;4957215;28;20424;-82
2023/08/19 01:44:50;;;;;;;8.60;7.90;;;;;;;;;;4957418;28;20433;-82
2023/08/19 01:47:17;;;;;;;9.13;8.30;;;;;;;;;;4941279;29;20866;-82
2023/08/19 01:49:46;;;;;;;11.53;8.57;;;;;;;;;;4937737;29;20801;-83
2023/08/19 01:52:12;;;;;;;10.13;8.90;;;;;;;;;;4937497;29;20474;-83
2023/08/19 01:54:39;;;;;;;8.90;8.10;;;;;;;;;;4952391;29;20435;-83
2023/08/19 01:57:05;;;;;;;10.13;9.13;;;;;;;;;;4945260;29;20429;-84
2023/08/19 01:59:32;;;;;;;8.63;7.80;;;;;;;;;;4956936;28;20559;-82
2023/08/19 02:01:58;;;;;;;9.07;8.27;;;;;;;;;;4957021;28;20432;-83
2023/08/19 02:04:24;;;;;;;10.33;9.27;;;;;;;;;;4956836;29;20423;-83
2023/08/19 02:06:49;;;;;;;9.67;8.77;;;;;;;;;;4939758;29;20533;-83
2023/08/19 02:09:15;;;;;;;10.43;9.37;;;;;;;;;;4937263;29;20195;-84
2023/08/19 02:11:41;;;;;;;10.03;9.13;;;;;;;;;;4936133;29;20412;-84
2023/08/19 02:14:08;;;;;;;10.20;9.30;;;;;;;;;;4937037;29;20513;-84
2023/08/19 02:16:34;;;;;;;10.50;9.70;;;;;;;;;;4937331;29;20276;-84
2023/08/19 02:19:00;;;;;;;11.37;10.27;;;;;;;;;;4936937;29;20604;-82
2023/08/19 02:21:26;;;;;;;10.37;9.47;;;;;;;;;;4937927;29;20188;-82
2023/08/19 02:23:53;;;;;;;10.90;9.77;;;;;;;;;;4936792;29;20414;-83
2023/08/19 02:26:19;;;;;;;10.73;9.60;;;;;;;;;;4935911;29;20919;-83
2023/08/19 02:28:45;;;;;;;11.27;10.27;;;;;;;;;;4936164;29;20416;-83
2023/08/19 02:31:11;;;;;;;10.80;9.80;;;;;;;;;;4937063;29;20421;-81
2023/08/19 02:33:38;;;;;;;11.50;10.30;;;;;;;;;;4937003;29;20509;-81
2023/08/19 02:36:05;;;;;;;10.97;9.90;;;;;;;;;;4936636;29;20304;-82
2023/08/19 02:38:31;;;;;;;11.07;9.90;;;;;;;;;;4936676;29;20473;-81
2023/08/19 02:40:57;;;;;;;10.90;9.90;;;;;;;;;;4936800;29;20410;-83
2023/08/19 02:43:23;;;;;;;10.77;9.67;;;;;;;;;;4936728;29;20181;-81
2023/08/19 02:45:49;;;;;;;11.13;10.13;;;;;;;;;;4936702;29;20418;-81
2023/08/19 02:48:15;;;;;;;10.07;9.17;;;;;;;;;;4936602;29;20175;-81
2023/08/19 02:50:44;;;;;;;11.47;9.20;;;;;;;;;;4936318;29;20762;-82
2023/08/19 02:53:10;;;;;;;10.60;9.60;;;;;;;;;;4936520;29;20447;-82
2023/08/19 02:55:40;;;;;;;10.20;9.40;;;;;;;;;;4936506;29;20418;-84
2023/08/19 02:58:06;;;;;;;10.80;9.80;;;;;;;;;;4936435;28;20417;-83
2023/08/19 03:00:35;;;;;;;11.90;10.67;;;;;;;;;;4951128;29;20911;-83
2023/08/19 03:03:01;;;;;;;11.10;10.00;;;;;;;;;;4931368;29;20503;-84
2023/08/19 03:05:27;;;;;;;11.40;10.20;;;;;;;;;;4935987;29;20905;-83
2023/08/19 03:07:53;;;;;;;11.60;10.47;;;;;;;;;;4936334;29;20233;-84
2023/08/19 03:10:19;;;;;;;12.47;11.30;;;;;;;;;;4936212;29;20513;-83
2023/08/19 03:12:45;;;;;;;13.00;10.00;;;;;;;;;;4936162;29;20173;-83
2023/08/19 03:15:11;;;;;;;11.10;10.07;;;;;;;;;;4936045;29;20718;-83
2023/08/19 03:17:37;;;;;;;12.33;11.13;;;;;;;;;;4936148;29;20206;-83
2023/08/19 03:20:03;;;;;;;10.40;9.30;;;;;;;;;;4935717;29;20321;-83
2023/08/19 03:22:29;;;;;;;13.17;10.87;;;;;;;;;;4936139;29;20174;-83
2023/08/19 03:24:54;;;;;;;12.43;10.97;;;;;;;;;;4935968;29;20501;-82
2023/08/19 03:27:20;;;;;;;11.00;9.90;;;;;;;;;;4936004;29;20185;-81
2023/08/19 03:29:47;;;;;;;12.00;10.20;;;;;;;;;;4935852;29;20185;-83
2023/08/19 03:32:13;;;;;;;12.17;10.97;;;;;;;;;;4935863;29;20178;-82
2023/08/19 03:34:39;;;;;;;12.20;11.00;;;;;;;;;;4935340;29;20813;-82
2023/08/19 03:37:05;;;;;;;12.20;11.03;;;;;;;;;;4935133;29;20887;-82
2023/08/19 03:39:31;;;;;;;11.47;9.67;;;;;;;;;;4935599;29;20566;-83
2023/08/19 03:41:57;;;;;;;12.20;11.10;;;;;;;;;;4935512;29;20469;-81
2023/08/19 03:44:23;;;;;;;11.40;10.23;;;;;;;;;;4935598;29;20181;-81
2023/08/19 03:46:48;;;;;;;11.40;10.30;;;;;;;;;;4935709;29;20631;-83
2023/08/19 03:49:14;;;;;;;11.90;10.80;;;;;;;;;;4950211;29;20174;-81
2023/08/19 03:51:40;;;;;;;13.33;12.03;;;;;;;;;;4949867;29;20284;-82
2023/08/19 03:54:06;;;;;;;13.63;11.20;;;;;;;;;;4935615;29;20228;-83
2023/08/19 03:56:32;;;;;;;12.93;11.63;;;;;;;;;;4950068;28;20414;-82
2023/08/19 03:58:58;;;;;;;13.67;12.17;;;;;;;;;;4935367;29;20217;-83
2023/08/19 04:01:24;;;;;;;11.50;10.30;;;;;;;;;;4950153;28;20180;-81
2023/08/19 04:03:50;;;;;;;10.77;9.63;;;;;;;;;;4935279;29;20286;-81
2023/08/19 04:06:16;;;;;;;11.83;9.93;;;;;;;;;;4935096;29;20185;-81
2023/08/19 04:08:42;;;;;;;12.67;11.50;;;;;;;;;;4935324;29;20181;-81
2023/08/19 04:11:08;;;;;;;12.40;10.90;;;;;;;;;;4935339;29;20567;-82
2023/08/19 04:13:34;;;;;;;11.03;9.93;;;;;;;;;;4935246;29;20473;-81
2023/08/19 04:16:01;;;;;;;16.00;10.43;;;;;;;;;;4934800;29;20500;-82
2023/08/19 04:18:27;;;;;;;13.10;12.00;;;;;;;;;;4935155;29;20205;-83
2023/08/19 04:20:53;;;;;;;10.93;9.90;;;;;;;;;;4934982;29;20422;-82
2023/08/19 04:23:19;;;;;;;12.63;11.37;;;;;;;;;;4935208;29;20582;-81
2023/08/19 04:25:45;;;;;;;12.87;11.73;;;;;;;;;;4935156;29;20229;-80
2023/08/19 04:28:14;;;;;;;12.43;11.23;;;;;;;;;;4935449;29;20890;-81
2023/08/19 04:30:40;;;;;;;14.40;10.23;;;;;;;;;;4935542;29;20178;-81
2023/08/19 04:33:06;;;;;;;12.37;10.60;;;;;;;;;;4935570;29;20469;-80
2023/08/19 04:35:32;;;;;;;11.30;10.30;;;;;;;;;;4935109;29;20571;-81
2023/08/19 04:37:58;;;;;;;15.30;11.63;;;;;;;;;;4935500;29;20414;-81
2023/08/19 04:40:24;;;;;;;9.90;8.87;;;;;;;;;;4935516;29;20173;-81
2023/08/19 04:42:50;;;;;;;12.20;10.13;;;;;;;;;;4935567;29;20472;-81
2023/08/19 04:45:16;;;;;;;12.13;10.83;;;;;;;;;;4935569;29;20424;-81
2023/08/19 04:47:42;;;;;;;12.48;11.18;;;;;;;;;;4936295;29;20413;-81
2023/08/19 04:50:09;;;;;;;12.03;9.77;;;;;;;;;;4938832;29;20686;-81
2023/08/19 04:52:35;;;;;;;11.00;9.70;;;;;;;;;;4939273;29;20414;-82
2023/08/19 04:55:02;;;;;;;10.80;9.80;;;;;;;;;;4939287;29;20409;-81
2023/08/19 04:57:28;;;;;;;12.20;11.00;;;;;;;;;;4940462;29;20836;-80
2023/08/19 04:59:54;;;;;;;9.83;8.73;;;;;;;;;;4970715;28;20528;-81
2023/08/19 05:02:20;;;;;;;11.30;10.30;;;;;;;;;;4939112;29;20477;-81
2023/08/19 05:04:45;;;;;;;12.50;10.10;;;;;;;;;;4938825;29;20229;-81
2023/08/19 05:07:11;;;;;;;10.40;9.60;;;;;;;;;;4939034;29;20650;-81
2023/08/19 05:09:37;;;;;;;10.40;9.47;;;;;;;;;;4938951;29;20245;-80
2023/08/19 05:12:03;;;;;;;11.80;9.63;;;;;;;;;;4953722;28;20628;-81
2023/08/19 05:14:29;;;;;;;10.90;9.80;;;;;;;;;;4938755;29;20540;-81
2023/08/19 05:16:55;;;;;;;11.30;10.00;;;;;;;;;;4938974;29;20432;-81
2023/08/19 05:19:22;;;;;;;10.83;9.80;;;;;;;;;;4938563;29;20418;-81
2023/08/19 05:21:48;;;;;;;11.93;10.83;;;;;;;;;;4953458;29;20433;-82
2023/08/19 05:24:15;;;;;;;10.40;9.40;;;;;;;;;;4953393;28;20451;-81
2023/08/19 05:26:44;;;;;;;9.40;8.50;;;;;;;;;;4938818;29;20521;-80
2023/08/19 05:29:10;;;;;;;9.90;8.90;;;;;;;;;;4938576;29;20484;-81
2023/08/19 05:31:36;;;;;;;10.70;9.43;;;;;;;;;;4953338;29;20422;-80
2023/08/19 05:34:02;;;;;;;13.73;8.90;;;;;;;;;;4938264;29;20210;-80
2023/08/19 05:36:28;;;;;;;10.60;9.60;;;;;;;;;;4938482;29;20768;-81
2023/08/19 05:38:54;;;;;;;9.90;8.97;;;;;;;;;;4938466;29;20422;-81
2023/08/19 05:41:20;;;;;;;9.77;8.53;;;;;;;;;;4938433;29;20419;-81
2023/08/19 05:43:46;;;;;;;10.57;8.37;;;;;;;;;;4938430;29;20489;-81
2023/08/19 05:46:12;;;;;;;10.83;6.93;;;;;;;;;;4938388;29;20424;-81
2023/08/19 05:48:38;;;;;;;8.33;7.53;;;;;;;;;;4952945;29;20649;-81
2023/08/19 05:51:04;;;;;;;7.50;6.83;;;;;;;;;;4937844;29;20186;-82
2023/08/19 05:53:30;;;;;;;8.13;7.27;;;;;;;;;;4938182;29;20183;-81
2023/08/19 05:55:55;;;;;;;6.93;6.43;;;;;;;;;;4938215;29;20584;-81
2023/08/19 05:58:21;;;;;;;7.80;7.00;;;;;;;;;;4938166;29;20272;-82
2023/08/19 06:00:47;;;;;;;8.33;7.20;;;;;;;;;;4937338;29;20779;-82
2023/08/19 06:03:14;;;;;;;7.90;7.00;;;;;;;;;;4938133;29;20184;-83
2023/08/19 06:05:40;;;;;;;11.97;7.03;;;;;;;;;;4941969;29;20411;-81
2023/08/19 06:08:06;;;;;;;6.20;5.60;;;;;;;;;;4937816;29;20457;-82
2023/08/19 06:10:32;;;;;;;6.50;6.00;;;;;;;;;;4937977;29;20185;-82
2023/08/19 06:12:58;;;;;;;7.13;6.53;;;;;;;;;;4937896;29;20174;-81
2023/08/19 06:15:24;;;;;;;8.87;6.17;;;;;;;;;;4937702;29;20515;-82
2023/08/19 06:17:50;;;;;;;7.90;7.20;;;;;;;;;;4937978;29;20429;-81
2023/08/19 06:20:16;;;;;;;8.47;7.63;;;;;;;;;;4937393;29;20821;-82
2023/08/19 06:22:41;;;;;;;6.53;5.90;;;;;;;;;;4937729;29;20627;-81
2023/08/19 06:25:07;;;;;;;6.57;5.97;;;;;;;;;;4937676;29;20492;-82
2023/08/19 06:27:33;;;;;;;8.37;7.40;;;;;;;;;;4937622;29;20165;-82
2023/08/19 06:29:59;;;;;;;7.10;6.50;;;;;;;;;;4937555;29;20564;-83
2023/08/19 06:32:25;;;;;;;8.80;7.90;;;;;;;;;;4937539;29;20205;-83
2023/08/19 06:34:51;;;;;;;7.53;6.93;;;;;;;;;;4937057;29;20209;-80
2023/08/19 06:37:19;;;;;;;8.53;7.57;;;;;;;;;;4937405;29;20874;-81
2023/08/19 06:39:48;;;;;;;8.87;7.27;;;;;;;;;;4937380;29;20417;-80
2023/08/19 06:42:15;;;;;;;8.37;7.40;;;;;;;;;;4937385;29;20425;-84
2023/08/19 06:44:42;;;;;;;7.77;7.07;;;;;;;;;;4937347;29;20469;-79
2023/08/19 06:47:09;;;;;;;8.30;7.60;;;;;;;;;;4946252;29;20511;-79
2023/08/19 06:49:35;;;;;;;8.10;7.40;;;;;;;;;;4955907;28;20507;-79
2023/08/19 06:52:01;;;;;;;7.77;7.07;;;;;;;;;;4956422;28;20853;-80
2023/08/19 06:54:27;;;;;;;9.13;7.80;;;;;;;;;;4956253;28;20417;-84
2023/08/19 06:56:55;;;;;;;8.37;7.40;;;;;;;;;;4956101;28;20420;-79
2023/08/19 06:59:29;;;;;;;7.87;7.00;;;;;;;;;;4956047;28;20504;-79
2023/08/19 07:01:57;;;;;;;8.20;7.50;;;;;;;;;;4956115;28;20409;-79
2023/08/19 07:04:23;;;;;;;7.80;7.20;;;;;;;;;;4955731;28;20444;-80
2023/08/19 07:06:50;;;;;;;8.20;7.50;;;;;;;;;;4955849;28;20393;-83
2023/08/19 07:09:17;;;;;;;7.23;6.53;;;;;;;;;;4955790;28;20479;-79
2023/08/19 07:11:43;;;;;;;7.70;6.97;;;;;;;;;;4954841;28;20815;-84
2023/08/19 07:14:09;;;;;;;8.30;7.50;;;;;;;;;;4955703;28;20435;-80
2023/08/19 07:16:35;;;;;;;8.73;7.93;;;;;;;;;;4955809;28;20474;-81
2023/08/19 07:19:03;;;;;;;8.70;8.00;;;;;;;;;;4955399;28;20555;-79
2023/08/19 07:21:31;;;;;;;7.73;7.10;;;;;;;;;;4970551;28;20427;-81
2023/08/19 07:23:58;;;;;;;7.73;7.10;;;;;;;;;;4970504;28;20793;-81
2023/08/19 07:26:26;;;;;;;8.07;7.50;;;;;;;;;;4955607;28;20464;-84
2023/08/19 07:28:52;;;;;;;8.23;7.53;;;;;;;;;;4970488;28;20504;-82
2023/08/19 07:31:18;;;;;;;9.37;8.50;;;;;;;;;;4946082;28;20421;-83
2023/08/19 07:33:44;;;;;;;7.80;7.10;;;;;;;;;;4935809;29;21156;-86
2023/08/19 07:36:10;;;;;;;7.70;7.00;;;;;;;;;;4936304;29;20421;-81
2023/08/19 07:38:37;;;;;;;6.80;6.30;;;;;;;;;;4936269;29;20193;-85
2023/08/19 07:41:03;;;;;;;8.30;7.50;;;;;;;;;;4954474;28;20181;-86
2023/08/19 07:43:29;;;;;;;7.53;7.10;;;;;;;;;;4954371;29;20416;-83
2023/08/19 07:45:55;;;;;;;7.60;7.00;;;;;;;;;;4954165;29;20496;-84
2023/08/19 07:48:21;;;;;;;6.83;6.20;;;;;;;;;;4954235;28;20634;-83
2023/08/19 07:50:47;;;;;;;7.43;6.83;;;;;;;;;;4953759;29;20428;-88
2023/08/19 07:53:13;;;;;;;7.90;7.20;;;;;;;;;;4954247;28;20693;-87
2023/08/19 07:55:39;;;;;;;7.90;7.10;;;;;;;;;;4954134;29;20417;-85
2023/08/19 07:58:05;;;;;;;7.10;6.50;;;;;;;;;;4969030;28;20514;-85
2023/08/19 08:00:31;;;;;;;7.63;6.93;;;;;;;;;;4968892;28;20861;-84
2023/08/19 08:02:57;;;;;;;7.80;7.13;;;;;;;;;;4953987;29;20440;-84
2023/08/19 08:05:23;;;;;;;8.00;7.30;;;;;;;;;;4953691;29;20242;-86
2023/08/19 08:07:49;;;;;;;8.33;7.27;;;;;;;;;;4954234;28;20177;-86
2023/08/19 08:10:15;;;;;;;8.30;7.40;;;;;;;;;;4954005;29;20464;-88
2023/08/19 08:12:41;;;;;;;7.90;7.30;;;;;;;;;;4968603;28;20173;-87
2023/08/19 08:15:08;;;;;;;11.10;8.30;;;;;;;;;;4953968;28;20479;-87
2023/08/19 08:17:34;;;;;;;8.57;7.77;;;;;;;;;;4954134;29;20180;-88
2023/08/19 08:19:59;;;;;;;7.70;7.10;;;;;;;;;;4968582;28;20850;-87
2023/08/19 08:22:26;;;;;;;7.40;6.80;;;;;;;;;;4953513;29;20263;-88
2023/08/19 08:24:52;;;;;;;7.20;6.60;;;;;;;;;;4953850;28;20426;-88
2023/08/19 08:27:18;;;;;;;7.53;6.90;;;;;;;;;;4954007;29;20416;-82
2023/08/19 08:29:44;;;;;;;7.83;7.13;;;;;;;;;;4954356;28;20468;-81
2023/08/19 08:32:09;;;;;;;7.37;6.70;;;;;;;;;;4969603;28;20417;-83
2023/08/19 08:34:36;;;;;;;7.43;6.73;;;;;;;;;;4954008;28;20431;-83
2023/08/19 08:37:02;;;;;;;7.90;7.30;;;;;;;;;;4954678;29;20170;-82
2023/08/19 08:39:28;;;;;;;7.27;6.57;;;;;;;;;;4954671;28;20431;-80
2023/08/19 08:41:54;;;;;;;7.67;7.07;;;;;;;;;;4954673;28;20448;-82
2023/08/19 08:44:20;;;;;;;7.70;6.93;;;;;;;;;;4954679;29;20219;-83
2023/08/19 08:46:47;;;;;;;7.63;6.93;;;;;;;;;;4950896;29;20453;-82
2023/08/19 08:49:14;;;;;;;7.27;6.67;;;;;;;;;;4935008;29;20241;-80
2023/08/19 08:51:40;;;;;;;7.53;6.93;;;;;;;;;;4935341;29;20425;-81
2023/08/19 08:54:07;;;;;;;6.50;6.00;;;;;;;;;;4934763;29;20509;-82
2023/08/19 08:56:33;;;;;;;6.93;6.33;;;;;;;;;;4934849;29;20958;-83
2023/08/19 08:58:59;;;;;;;7.20;6.60;;;;;;;;;;4934905;29;20444;-84
2023/08/19 09:01:27;;;;;;;7.50;6.80;;;;;;;;;;4934852;29;20186;-82
2023/08/19 09:03:58;;;;;;;7.73;7.13;;;;;;;;;;4929393;29;20516;-84
2023/08/19 09:06:25;;;;;;;7.40;6.70;;;;;;;;;;4934796;29;20421;-83
2023/08/19 09:08:58;;;;;;;8.27;7.10;;;;;;;;;;4934625;29;20468;-81
2023/08/19 09:11:27;;;;;;;8.20;7.50;;;;;;;;;;4934876;29;20431;-80
2023/08/19 09:14:06;;;;;;;8.10;7.60;;;;;;;;;;4929711;29;20417;-80
2023/08/19 09:16:32;;;;;;;8.20;7.50;;;;;;;;;;4934768;29;20477;-80
2023/08/19 09:18:58;;;;;;;8.17;7.47;;;;;;;;;;4934296;29;20946;-79
2023/08/19 09:21:25;;;;;;;7.93;7.33;;;;;;;;;;4934699;29;20662;-79
2023/08/19 09:23:51;;;;;;;8.97;8.27;;;;;;;;;;4934528;29;20639;-80
2023/08/19 09:26:17;;;;;;;8.47;7.80;;;;;;;;;;4949225;28;20520;-80
2023/08/19 09:28:43;;;;;;;8.40;7.70;;;;;;;;;;4934471;29;20205;-79
2023/08/19 09:31:20;;;;;;;8.33;7.73;;;;;;;;;;4934564;29;20829;-80
2023/08/19 09:33:47;;;;;;;8.53;7.67;;;;;;;;;;4933976;29;20410;-81
2023/08/19 09:36:13;;;;;;;8.50;7.83;;;;;;;;;;4937234;29;20473;-81
2023/08/19 09:38:39;;;;;;;9.50;8.27;;;;;;;;;;4937391;29;20413;-80
2023/08/19 09:41:08;;;;;;;8.57;7.97;;;;;;;;;;4937858;29;20184;-81
2023/08/19 09:43:38;;;;;;;8.20;7.57;;;;;;;;;;4935277;29;20181;-80
2023/08/19 09:46:04;;;;;;;8.10;7.50;;;;;;;;;;4938136;29;20413;-81
2023/08/19 09:48:30;;;;;;;9.50;8.70;;;;;;;;;;4937785;29;20461;-79
2023/08/19 09:50:56;;;;;;;9.17;8.37;;;;;;;;;;4938203;29;20485;-80
2023/08/19 09:53:22;;;;;;;9.90;9.07;;;;;;;;;;4938144;29;20178;-80
2023/08/19 09:55:49;;;;;;;8.50;7.90;;;;;;;;;;4938116;29;20201;-80
2023/08/19 09:58:15;;;;;;;9.60;8.80;;;;;;;;;;4937750;29;20409;-80
2023/08/19 10:00:41;;;;;;;9.37;8.73;;;;;;;;;;4938088;29;20426;-81
2023/08/19 10:03:07;;;;;;;8.63;8.03;;;;;;;;;;4937566;29;20844;-80
2023/08/19 10:05:40;;;;;;;8.90;8.30;;;;;;;;;;4937207;29;20453;-81
2023/08/19 10:08:13;;;;;;;7.80;7.17;;;;;;;;;;4934870;29;20451;-81
2023/08/19 10:10:39;;;;;;;9.17;8.40;;;;;;;;;;4937464;29;20425;-82
2023/08/19 10:13:07;;;;;;;9.30;8.60;;;;;;;;;;4937107;29;20449;-80
2023/08/19 10:15:33;;;;;;;9.20;8.40;;;;;;;;;;4934909;29;20488;-83
2023/08/19 10:18:03;;;;;;;9.43;8.63;;;;;;;;;;4950948;28;20760;-84
2023/08/19 10:20:32;;;;;;;10.27;9.27;;;;;;;;;;4931270;29;20426;-85
2023/08/19 10:22:59;;;;;;;9.33;8.50;;;;;;;;;;4936267;29;20445;-85
2023/08/19 10:25:26;;;;;;;8.93;8.23;;;;;;;;;;4950978;28;20437;-84
2023/08/19 10:27:52;;;;;;;9.93;8.93;;;;;;;;;;4936068;29;20481;-85
2023/08/19 10:30:28;;;;;;;8.80;8.10;;;;;;;;;;4936459;29;20477;-85
2023/08/19 10:32:54;;;;;;;8.77;8.10;;;;;;;;;;4936516;29;20290;-85
2023/08/19 10:35:23;;;;;;;8.50;7.90;;;;;;;;;;4936148;29;20430;-85
2023/08/19 10:37:49;;;;;;;9.10;8.30;;;;;;;;;;4936519;29;20170;-84
2023/08/19 10:40:20;;;;;;;8.33;7.73;;;;;;;;;;4936583;29;20462;-86
2023/08/19 10:42:57;;;;;;;9.00;8.30;;;;;;;;;;4936259;29;20949;-87
2023/08/19 10:45:23;;;;;;;8.70;7.90;;;;;;;;;;4935950;29;20985;-85
2023/08/19 10:47:52;;;;;;;8.10;7.60;;;;;;;;;;4936243;29;20644;-85
2023/08/19 10:50:18;;;;;;;7.77;7.27;;;;;;;;;;4950218;28;20640;-85
2023/08/19 10:53:11;;;;;;;8.07;7.57;;;;;;;;;;4934064;29;20457;-83
2023/08/19 10:55:50;;;;;;;9.30;8.70;;;;;;;;;;4921501;29;20179;-83
2023/08/19 10:58:17;;;;;;;8.50;7.90;;;;;;;;;;4938991;29;20426;-84
2023/08/19 11:00:43;;;;;;;9.30;8.60;;;;;;;;;;4931578;29;20482;-82
2023/08/19 11:03:10;;;;;;;8.90;8.30;;;;;;;;;;4931238;29;20418;-85
2023/08/19 11:05:36;;;;;;;8.40;7.70;;;;;;;;;;4931416;29;20423;-83
2023/08/19 11:08:06;;;;;;;8.67;8.00;;;;;;;;;;4931573;29;20466;-83
2023/08/19 11:10:32;;;;;;;8.63;8.10;;;;;;;;;;4916665;29;20222;-85
2023/08/19 11:13:00;;;;;;;8.77;8.00;;;;;;;;;;4916911;29;20426;-83
2023/08/19 11:15:26;;;;;;;7.43;6.93;;;;;;;;;;4917166;29;20818;-83
2023/08/19 11:17:52;;;;;;;7.93;7.43;;;;;;;;;;4940750;29;20440;-84
2023/08/19 11:20:18;;;;;;;9.40;8.80;;;;;;;;;;4916648;29;20586;-84
2023/08/19 11:22:45;;;;;;;10.03;9.33;;;;;;;;;;4916822;29;20526;-84
2023/08/19 11:25:12;;;;;;;8.67;8.07;;;;;;;;;;4916554;29;20177;-81
2023/08/19 11:27:44;;;;;;;9.10;8.40;;;;;;;;;;4916584;29;20935;-83
2023/08/19 11:30:11;;;;;;;7.93;7.43;;;;;;;;;;4916221;29;20466;-84
2023/08/19 11:32:37;;;;;;;9.23;8.40;;;;;;;;;;4916662;29;20427;-83
2023/08/19 11:35:03;;;;;;;9.13;7.87;;;;;;;;;;4916155;29;20557;-83
2023/08/19 11:37:29;;;;;;;8.60;7.90;;;;;;;;;;4916184;29;20462;-84
2023/08/19 11:39:55;;;;;;;7.77;7.27;;;;;;;;;;4916246;29;20995;-87
2023/08/19 11:42:21;;;;;;;7.17;6.50;;;;;;;;;;4916371;29;20419;-85
2023/08/19 11:44:47;;;;;;;8.87;8.17;;;;;;;;;;4931122;29;20437;-85
2023/08/19 11:47:14;;;;;;;8.93;8.33;;;;;;;;;;4930664;29;20206;-88
2023/08/19 11:49:42;;;;;;;8.43;7.83;;;;;;;;;;4942516;28;20429;-85
2023/08/19 11:52:08;;;;;;;8.53;8.03;;;;;;;;;;4951442;29;20940;-83
2023/08/19 11:54:34;;;;;;;9.13;8.43;;;;;;;;;;4954217;29;20417;-84
2023/08/19 11:57:05;;;;;;;9.50;8.70;;;;;;;;;;4953513;28;20183;-84
2023/08/19 11:59:32;;;;;;;9.77;9.07;;;;;;;;;;4954039;28;20244;-82
2023/08/19 12:01:59;;;;;;;10.63;9.43;;;;;;;;;;4954096;29;20409;-85
2023/08/19 12:04:25;;;;;;;9.03;8.43;;;;;;;;;;4953708;29;20964;-83
2023/08/19 12:06:51;;;;;;;9.90;9.07;;;;;;;;;;4953983;29;20448;-85
2023/08/19 12:09:31;;;;;;;9.13;8.53;;;;;;;;;;4954000;28;20432;-84
2023/08/19 12:12:09;;;;;;;10.60;9.50;;;;;;;;;;4953955;29;20247;-85
2023/08/19 12:14:37;;;;;;;9.30;8.60;;;;;;;;;;4953883;29;20985;-83
2023/08/19 12:17:04;;;;;;;9.27;8.47;;;;;;;;;;4954064;28;20457;-83
2023/08/19 12:19:30;;;;;;;9.17;8.47;;;;;;;;;;4946571;28;20491;-84
2023/08/19 12:21:56;;;;;;;10.13;9.23;;;;;;;;;;4928918;29;20413;-83
2023/08/19 12:24:22;;;;;;;9.27;8.47;;;;;;;;;;4934250;29;20209;-82
2023/08/19 12:26:48;;;;;;;9.20;8.40;;;;;;;;;;4949115;28;20452;-81
2023/08/19 12:29:14;;;;;;;8.50;7.73;;;;;;;;;;4934405;29;20277;-83
2023/08/19 12:31:40;;;;;;;9.20;8.50;;;;;;;;;;4934115;29;20421;-79
2023/08/19 12:34:05;;;;;;;8.70;8.00;;;;;;;;;;4932526;29;20181;-80
2023/08/19 12:36:31;;;;;;;9.40;8.60;;;;;;;;;;4931460;29;20204;-82
2023/08/19 12:38:57;;;;;;;7.97;7.37;;;;;;;;;;4934345;29;20208;-81
2023/08/19 12:41:23;;;;;;;8.73;8.00;;;;;;;;;;4949342;29;20186;-84
2023/08/19 12:43:50;;;;;;;8.80;8.00;;;;;;;;;;4934704;29;20178;-82
2023/08/19 12:46:17;;;;;;;10.10;7.50;;;;;;;;;;4935083;29;20439;-81
2023/08/19 12:48:43;;;;;;;8.43;7.73;;;;;;;;;;4934089;29;20421;-83
2023/08/19 12:51:09;;;;;;;8.37;7.60;;;;;;;;;;4934381;29;20437;-83
2023/08/19 12:53:35;;;;;;;9.17;8.37;;;;;;;;;;4933555;29;20193;-81
2023/08/19 12:56:02;;;;;;;8.20;7.40;;;;;;;;;;4933960;29;20754;-82
2023/08/19 12:58:28;;;;;;;8.70;8.07;;;;;;;;;;4945435;29;20251;-81
2023/08/19 13:00:54;;;;;;;8.47;7.70;;;;;;;;;;4934386;29;20418;-82
2023/08/19 13:03:20;;;;;;;8.00;7.40;;;;;;;;;;4933985;29;20190;-81
2023/08/19 13:05:46;;;;;;;8.97;8.17;;;;;;;;;;4934314;29;20414;-81
2023/08/19 13:08:13;;;;;;;9.00;8.30;;;;;;;;;;4934877;29;20819;-82
2023/08/19 13:10:38;;;;;;;8.73;7.90;;;;;;;;;;4937140;29;20562;-84
2023/08/19 13:13:05;;;;;;;10.93;8.37;;;;;;;;;;4937937;29;20466;-80
2023/08/19 13:15:32;;;;;;;8.43;7.73;;;;;;;;;;4937785;29;20225;-80
2023/08/19 13:17:58;;;;;;;8.83;8.23;;;;;;;;;;4937548;29;20492;-80
2023/08/19 13:20:25;;;;;;;10.60;8.33;;;;;;;;;;4937628;29;20484;-79
2023/08/19 13:22:51;;;;;;;8.87;8.10;;;;;;;;;;4937174;29;20965;-80
2023/08/19 13:25:17;;;;;;;8.30;7.70;;;;;;;;;;4936799;29;20445;-80
2023/08/19 13:27:43;;;;;;;8.87;8.20;;;;;;;;;;4939948;29;20996;-79
2023/08/19 13:30:10;;;;;;;9.13;8.33;;;;;;;;;;4956507;28;20415;-79
2023/08/19 13:32:35;;;;;;;9.07;8.37;;;;;;;;;;4956646;29;20413;-79
2023/08/19 13:35:03;;;;;;;8.00;7.40;;;;;;;;;;4956610;29;20917;-80
2023/08/19 13:37:29;;;;;;;8.93;8.13;;;;;;;;;;4950988;28;20189;-81
2023/08/19 13:39:57;;;;;;;7.27;6.67;;;;;;;;;;4970586;28;20480;-83
2023/08/19 13:42:23;;;;;;;9.13;8.33;;;;;;;;;;4956614;28;20173;-84
2023/08/19 13:44:49;;;;;;;9.10;8.20;;;;;;;;;;4956354;29;20440;-81
2023/08/19 13:47:15;;;;;;;8.47;7.87;;;;;;;;;;4956378;28;20413;-83
2023/08/19 13:49:41;;;;;;;8.83;8.13;;;;;;;;;;4955903;29;20779;-79
2023/08/19 13:52:14;;;;;;;8.33;7.67;;;;;;;;;;4939616;29;20200;-80
2023/08/19 13:54:40;;;;;;;8.90;8.00;;;;;;;;;;4934259;29;20528;-80
2023/08/19 13:57:06;;;;;;;10.10;9.10;;;;;;;;;;4935996;29;20445;-79
2023/08/19 13:59:32;;;;;;;8.63;7.93;;;;;;;;;;4935812;29;20221;-83
2023/08/19 14:01:57;;;;;;;9.37;8.57;;;;;;;;;;4937807;29;21233;-82
2023/08/19 14:04:23;;;;;;;9.13;8.33;;;;;;;;;;4945316;29;20241;-82
2023/08/19 14:06:49;;;;;;;9.00;8.20;;;;;;;;;;4937687;29;20639;-82
2023/08/19 14:09:15;;;;;;;8.57;7.93;;;;;;;;;;4937697;29;20639;-83
2023/08/19 14:11:41;;;;;;;8.20;7.57;;;;;;;;;;4937716;29;20441;-82
2023/08/19 14:14:07;;;;;;;9.90;8.60;;;;;;;;;;4937377;29;20232;-82
2023/08/19 14:16:33;;;;;;;8.87;8.17;;;;;;;;;;4937562;29;20551;-83
2023/08/19 14:19:03;;;;;;;9.27;8.47;;;;;;;;;;4937065;29;20479;-83
2023/08/19 14:21:28;;;;;;;8.90;8.00;;;;;;;;;;4936848;29;20184;-83
2023/08/19 14:23:54;;;;;;;9.37;8.47;;;;;;;;;;4936917;29;20413;-82
2023/08/19 14:26:20;;;;;;;8.70;7.87;;;;;;;;;;4936928;29;20177;-82
2023/08/19 14:28:46;;;;;;;9.80;8.00;;;;;;;;;;4952096;28;20178;-82
2023/08/19 14:31:15;;;;;;;8.97;8.27;;;;;;;;;;4937354;29;20178;-84
2023/08/19 14:33:42;;;;;;;9.33;8.50;;;;;;;;;;4936901;29;20178;-82
2023/08/19 14:36:08;;;;;;;9.60;8.80;;;;;;;;;;4936840;29;20484;-83